Meherrin, VA

3:31 PM EST on January 25, 2015 (GMT -0500)
Lunenberg | Change Station
CLOSE
Current Station
Personal Weather Station
Location: Victoria, VA
Elevation: 474 ft
Nearby Weather Stations

Elev 474 ft 36.98 °N, 78.29 °W | Updated 16 seconds ago

Clear
Clear
54.5 °F
Feels Like 54.5 °F
N
3.8
Wind Variable Wind from South
Gusts 4.5 mph

Today
High -- | Low -- °F
--% Chance of Precip.
Yesterday
High -- | Low -- °F
Precip. -- in
7:21 AM 5:30 PM
Waxing Crescent, 35% visible
Pressure 29.80 in
Visibility 10.0 miles
Clouds Clear
Dew Point 37 °F
Humidity 52%
Rainfall 0.00 in
Snow Depth Not available.
UV 2 out of 12
Pollen 1.40 out of 12
Air Quality Not available.
Flu Activity Not available.
METAR KFVX 252015Z AUTO 16005KT 10SM CLR 14/01 A2980 RMK AO2 T01350009

More Conditions Fewer Conditions

Pressure 29.80 in
Visibility 10.0 miles
Clouds Clear
Dew Point 37 °F
Humidity 52%
Rainfall 0.00 in
Snow Depth Not available.
UV 2 out of 12
Pollen 1.40 out of 12
Air Quality Not available.
Flu Activity Not available.
METAR KFVX 252015Z AUTO 16005KT 10SM CLR 14/01 A2980 RMK AO2 T01350009

More Conditions Fewer Conditions

10-Day Weather Forecast

Almanac

Astronomy

Jan. 25, 2015 Rise Set
Actual Time
Civil Twilight
Nautical Twilight
Astronomical Twilight
Moon
Length of Visible Light
Length of Day
Tomorrow will be .
, % of the Moon is Illuminated

Today's Extremes

State Highs State Lows

Community

WunderPhotos

Upload Photos

1,790,040 photos uploaded!

WunderBlogs® & News

Nearby

Air Quality

  Air Quality AQ Index Pollutant
Not available.

Snow Depth

Station Depth Elevation

Earthquake Activity

City Distance Mag. Time & Date
Minimum magnitude displayed is 2.5.

Coastal Water Temperatures

Place Temperature

Nearby Weather Stations